sensor_id;sensor_type;location;lat;lon;timestamp;P1;durP1;ratioP1;P2;durP2;ratioP2
6850;SDS011;3464;42.728;23.296;2023-04-15T00:00:52;15.30;;;6.27;;
6850;SDS011;3464;42.728;23.296;2023-04-15T00:03:19;18.60;;;6.77;;
6850;SDS011;3464;42.728;23.296;2023-04-15T00:05:45;17.80;;;6.17;;
6850;SDS011;3464;42.728;23.296;2023-04-15T00:08:12;17.97;;;6.43;;
6850;SDS011;3464;42.728;23.296;2023-04-15T00:10:39;17.27;;;5.67;;
6850;SDS011;3464;42.728;23.296;2023-04-15T00:13:06;17.80;;;6.60;;
6850;SDS011;3464;42.728;23.296;2023-04-15T00:15:32;16.80;;;6.90;;
6850;SDS011;3464;42.728;23.296;2023-04-15T00:17:59;17.73;;;7.30;;
6850;SDS011;3464;42.728;23.296;2023-04-15T00:20:27;21.90;;;7.50;;
6850;SDS011;3464;42.728;23.296;2023-04-15T00:22:54;18.23;;;6.97;;
6850;SDS011;3464;42.728;23.296;2023-04-15T00:25:21;17.00;;;7.10;;
6850;SDS011;3464;42.728;23.296;2023-04-15T00:27:50;15.17;;;6.27;;
6850;SDS011;3464;42.728;23.296;2023-04-15T00:30:17;17.70;;;6.93;;
6850;SDS011;3464;42.728;23.296;2023-04-15T00:32:44;17.10;;;7.10;;
6850;SDS011;3464;42.728;23.296;2023-04-15T00:35:12;25.17;;;7.40;;
6850;SDS011;3464;42.728;23.296;2023-04-15T00:37:38;17.17;;;7.27;;
6850;SDS011;3464;42.728;23.296;2023-04-15T00:40:13;16.43;;;7.13;;
6850;SDS011;3464;42.728;23.296;2023-04-15T00:42:41;19.13;;;7.33;;
6850;SDS011;3464;42.728;23.296;2023-04-15T00:45:10;20.37;;;7.60;;
6850;SDS011;3464;42.728;23.296;2023-04-15T00:47:36;19.23;;;6.80;;
6850;SDS011;3464;42.728;23.296;2023-04-15T00:50:05;18.97;;;6.70;;
6850;SDS011;3464;42.728;23.296;2023-04-15T00:52:32;17.63;;;7.47;;
6850;SDS011;3464;42.728;23.296;2023-04-15T00:54:59;17.80;;;6.53;;
6850;SDS011;3464;42.728;23.296;2023-04-15T00:57:26;17.63;;;6.90;;
6850;SDS011;3464;42.728;23.296;2023-04-15T00:59:54;17.23;;;6.97;;
6850;SDS011;3464;42.728;23.296;2023-04-15T01:02:21;18.53;;;7.80;;
6850;SDS011;3464;42.728;23.296;2023-04-15T01:04:48;18.93;;;7.63;;
6850;SDS011;3464;42.728;23.296;2023-04-15T01:07:18;17.30;;;7.80;;
6850;SDS011;3464;42.728;23.296;2023-04-15T01:09:46;20.83;;;8.17;;
6850;SDS011;3464;42.728;23.296;2023-04-15T01:12:13;20.00;;;8.67;;
6850;SDS011;3464;42.728;23.296;2023-04-15T01:14:40;19.30;;;8.33;;
6850;SDS011;3464;42.728;23.296;2023-04-15T01:17:07;20.40;;;7.53;;
6850;SDS011;3464;42.728;23.296;2023-04-15T01:19:36;20.23;;;8.20;;
6850;SDS011;3464;42.728;23.296;2023-04-15T01:22:02;20.73;;;8.47;;
6850;SDS011;3464;42.728;23.296;2023-04-15T01:24:29;26.20;;;9.07;;
6850;SDS011;3464;42.728;23.296;2023-04-15T01:26:56;22.87;;;9.20;;
6850;SDS011;3464;42.728;23.296;2023-04-15T01:29:22;18.20;;;7.83;;
6850;SDS011;3464;42.728;23.296;2023-04-15T01:31:51;18.00;;;9.10;;
6850;SDS011;3464;42.728;23.296;2023-04-15T01:34:17;20.30;;;9.77;;
6850;SDS011;3464;42.728;23.296;2023-04-15T01:36:44;20.97;;;9.53;;
6850;SDS011;3464;42.728;23.296;2023-04-15T01:39:11;20.17;;;9.40;;
6850;SDS011;3464;42.728;23.296;2023-04-15T01:41:38;21.23;;;8.47;;
6850;SDS011;3464;42.728;23.296;2023-04-15T01:44:06;17.87;;;8.23;;
6850;SDS011;3464;42.728;23.296;2023-04-15T01:46:34;18.83;;;7.37;;
6850;SDS011;3464;42.728;23.296;2023-04-15T01:49:01;17.00;;;7.70;;
6850;SDS011;3464;42.728;23.296;2023-04-15T01:51:29;18.30;;;7.53;;
6850;SDS011;3464;42.728;23.296;2023-04-15T01:53:57;19.20;;;7.90;;
6850;SDS011;3464;42.728;23.296;2023-04-15T01:56:26;16.13;;;6.70;;
6850;SDS011;3464;42.728;23.296;2023-04-15T01:58:53;15.33;;;6.10;;
6850;SDS011;3464;42.728;23.296;2023-04-15T02:01:19;17.23;;;6.10;;
6850;SDS011;3464;42.728;23.296;2023-04-15T02:03:49;17.50;;;6.20;;
6850;SDS011;3464;42.728;23.296;2023-04-15T02:06:16;17.83;;;7.70;;
6850;SDS011;3464;42.728;23.296;2023-04-15T02:08:43;17.27;;;7.83;;
6850;SDS011;3464;42.728;23.296;2023-04-15T02:11:10;17.50;;;7.97;;
6850;SDS011;3464;42.728;23.296;2023-04-15T02:13:36;20.30;;;8.87;;
6850;SDS011;3464;42.728;23.296;2023-04-15T02:16:04;20.87;;;10.00;;
6850;SDS011;3464;42.728;23.296;2023-04-15T02:18:31;19.63;;;8.70;;
6850;SDS011;3464;42.728;23.296;2023-04-15T02:20:58;19.93;;;9.00;;
6850;SDS011;3464;42.728;23.296;2023-04-15T02:23:26;21.93;;;9.60;;
6850;SDS011;3464;42.728;23.296;2023-04-15T02:25:54;23.43;;;10.83;;
6850;SDS011;3464;42.728;23.296;2023-04-15T02:28:20;26.00;;;10.50;;
6850;SDS011;3464;42.728;23.296;2023-04-15T02:30:48;21.73;;;10.63;;
6850;SDS011;3464;42.728;23.296;2023-04-15T02:33:16;23.07;;;10.90;;
6850;SDS011;3464;42.728;23.296;2023-04-15T02:35:43;23.43;;;11.40;;
6850;SDS011;3464;42.728;23.296;2023-04-15T02:38:10;21.00;;;9.70;;
6850;SDS011;3464;42.728;23.296;2023-04-15T02:40:38;19.00;;;8.80;;
6850;SDS011;3464;42.728;23.296;2023-04-15T02:43:05;21.07;;;8.60;;
6850;SDS011;3464;42.728;23.296;2023-04-15T02:45:34;24.80;;;9.13;;
6850;SDS011;3464;42.728;23.296;2023-04-15T02:48:00;19.00;;;8.80;;
6850;SDS011;3464;42.728;23.296;2023-04-15T02:50:28;24.03;;;9.00;;
6850;SDS011;3464;42.728;23.296;2023-04-15T02:52:56;17.00;;;8.33;;
6850;SDS011;3464;42.728;23.296;2023-04-15T02:55:23;17.90;;;8.30;;
6850;SDS011;3464;42.728;23.296;2023-04-15T02:57:50;17.40;;;8.67;;
6850;SDS011;3464;42.728;23.296;2023-04-15T03:00:18;23.93;;;8.97;;
6850;SDS011;3464;42.728;23.296;2023-04-15T03:02:45;17.20;;;8.07;;
6850;SDS011;3464;42.728;23.296;2023-04-15T03:05:13;18.13;;;8.33;;
6850;SDS011;3464;42.728;23.296;2023-04-15T03:07:39;17.47;;;8.10;;
6850;SDS011;3464;42.728;23.296;2023-04-15T03:10:06;16.70;;;8.43;;
6850;SDS011;3464;42.728;23.296;2023-04-15T03:12:34;17.50;;;8.63;;
6850;SDS011;3464;42.728;23.296;2023-04-15T03:15:04;17.70;;;8.10;;
6850;SDS011;3464;42.728;23.296;2023-04-15T03:17:31;15.73;;;7.30;;
6850;SDS011;3464;42.728;23.296;2023-04-15T03:19:58;15.47;;;7.63;;
6850;SDS011;3464;42.728;23.296;2023-04-15T03:22:24;15.30;;;7.30;;
6850;SDS011;3464;42.728;23.296;2023-04-15T03:24:51;15.83;;;6.07;;
6850;SDS011;3464;42.728;23.296;2023-04-15T03:27:18;13.27;;;6.10;;
6850;SDS011;3464;42.728;23.296;2023-04-15T03:29:45;17.40;;;6.50;;
6850;SDS011;3464;42.728;23.296;2023-04-15T03:32:18;16.27;;;6.80;;
6850;SDS011;3464;42.728;23.296;2023-04-15T03:34:48;16.83;;;6.57;;
6850;SDS011;3464;42.728;23.296;2023-04-15T03:37:17;15.77;;;6.63;;
6850;SDS011;3464;42.728;23.296;2023-04-15T03:39:48;16.80;;;7.47;;
6850;SDS011;3464;42.728;23.296;2023-04-15T03:42:18;18.60;;;7.90;;
6850;SDS011;3464;42.728;23.296;2023-04-15T03:44:49;17.83;;;8.17;;
6850;SDS011;3464;42.728;23.296;2023-04-15T03:47:17;20.43;;;8.70;;
6850;SDS011;3464;42.728;23.296;2023-04-15T03:49:44;19.47;;;9.40;;
6850;SDS011;3464;42.728;23.296;2023-04-15T03:52:11;21.40;;;8.27;;
6850;SDS011;3464;42.728;23.296;2023-04-15T03:54:52;20.63;;;8.00;;
6850;SDS011;3464;42.728;23.296;2023-04-15T03:57:20;18.53;;;7.73;;
6850;SDS011;3464;42.728;23.296;2023-04-15T03:59:47;18.13;;;7.90;;
6850;SDS011;3464;42.728;23.296;2023-04-15T04:02:18;18.07;;;7.30;;
6850;SDS011;3464;42.728;23.296;2023-04-15T04:04:46;18.73;;;8.10;;
6850;SDS011;3464;42.728;23.296;2023-04-15T04:07:14;16.83;;;8.20;;
6850;SDS011;3464;42.728;23.296;2023-04-15T04:09:41;27.30;;;8.77;;
6850;SDS011;3464;42.728;23.296;2023-04-15T04:12:09;17.40;;;7.87;;
6850;SDS011;3464;42.728;23.296;2023-04-15T04:14:35;16.80;;;8.97;;
6850;SDS011;3464;42.728;23.296;2023-04-15T04:17:02;21.43;;;10.60;;
6850;SDS011;3464;42.728;23.296;2023-04-15T04:19:28;21.43;;;9.70;;
6850;SDS011;3464;42.728;23.296;2023-04-15T04:21:55;22.37;;;9.87;;
6850;SDS011;3464;42.728;23.296;2023-04-15T04:24:21;25.30;;;10.20;;
6850;SDS011;3464;42.728;23.296;2023-04-15T04:26:48;18.90;;;8.90;;
6850;SDS011;3464;42.728;23.296;2023-04-15T04:29:16;26.33;;;9.27;;
6850;SDS011;3464;42.728;23.296;2023-04-15T04:31:42;19.07;;;8.73;;
6850;SDS011;3464;42.728;23.296;2023-04-15T04:34:10;18.90;;;7.60;;
6850;SDS011;3464;42.728;23.296;2023-04-15T04:36:37;20.10;;;8.50;;
6850;SDS011;3464;42.728;23.296;2023-04-15T04:39:03;20.47;;;8.20;;
6850;SDS011;3464;42.728;23.296;2023-04-15T04:41:30;17.67;;;7.63;;
6850;SDS011;3464;42.728;23.296;2023-04-15T04:43:57;19.67;;;7.47;;
6850;SDS011;3464;42.728;23.296;2023-04-15T04:46:23;19.20;;;7.67;;
6850;SDS011;3464;42.728;23.296;2023-04-15T04:48:50;15.80;;;7.00;;
6850;SDS011;3464;42.728;23.296;2023-04-15T04:51:16;18.73;;;7.10;;
6850;SDS011;3464;42.728;23.296;2023-04-15T04:53:43;16.20;;;6.57;;
6850;SDS011;3464;42.728;23.296;2023-04-15T04:56:10;18.07;;;7.00;;
6850;SDS011;3464;42.728;23.296;2023-04-15T04:58:37;21.50;;;8.20;;
6850;SDS011;3464;42.728;23.296;2023-04-15T05:01:05;22.37;;;7.37;;
6850;SDS011;3464;42.728;23.296;2023-04-15T05:03:31;18.40;;;7.50;;
6850;SDS011;3464;42.728;23.296;2023-04-15T05:05:58;21.93;;;7.80;;
6850;SDS011;3464;42.728;23.296;2023-04-15T05:08:25;21.13;;;7.87;;
6850;SDS011;3464;42.728;23.296;2023-04-15T05:10:54;17.87;;;7.90;;
6850;SDS011;3464;42.728;23.296;2023-04-15T05:13:21;20.80;;;8.80;;
6850;SDS011;3464;42.728;23.296;2023-04-15T05:15:48;17.27;;;7.83;;
6850;SDS011;3464;42.728;23.296;2023-04-15T05:18:16;17.70;;;7.50;;
6850;SDS011;3464;42.728;23.296;2023-04-15T05:20:46;19.73;;;8.33;;
6850;SDS011;3464;42.728;23.296;2023-04-15T05:23:13;18.37;;;8.07;;
6850;SDS011;3464;42.728;23.296;2023-04-15T05:25:40;22.67;;;7.53;;
6850;SDS011;3464;42.728;23.296;2023-04-15T05:28:08;20.03;;;7.10;;
6850;SDS011;3464;42.728;23.296;2023-04-15T05:30:35;21.10;;;8.03;;
6850;SDS011;3464;42.728;23.296;2023-04-15T05:33:01;18.47;;;7.50;;
6850;SDS011;3464;42.728;23.296;2023-04-15T05:35:28;15.57;;;6.50;;
6850;SDS011;3464;42.728;23.296;2023-04-15T05:37:55;17.53;;;7.63;;
6850;SDS011;3464;42.728;23.296;2023-04-15T05:40:21;16.63;;;7.10;;
6850;SDS011;3464;42.728;23.296;2023-04-15T05:42:48;17.93;;;7.07;;
6850;SDS011;3464;42.728;23.296;2023-04-15T05:45:15;18.93;;;7.30;;
6850;SDS011;3464;42.728;23.296;2023-04-15T05:47:43;19.13;;;7.40;;
6850;SDS011;3464;42.728;23.296;2023-04-15T05:50:15;15.67;;;6.97;;
6850;SDS011;3464;42.728;23.296;2023-04-15T05:52:42;18.10;;;7.07;;
6850;SDS011;3464;42.728;23.296;2023-04-15T05:55:10;18.30;;;6.60;;
6850;SDS011;3464;42.728;23.296;2023-04-15T05:57:37;25.20;;;7.10;;
6850;SDS011;3464;42.728;23.296;2023-04-15T06:00:06;17.30;;;6.23;;
6850;SDS011;3464;42.728;23.296;2023-04-15T06:02:34;18.13;;;6.07;;
6850;SDS011;3464;42.728;23.296;2023-04-15T06:05:02;16.17;;;5.80;;
6850;SDS011;3464;42.728;23.296;2023-04-15T06:07:29;22.50;;;6.30;;
6850;SDS011;3464;42.728;23.296;2023-04-15T06:09:55;16.23;;;6.37;;
6850;SDS011;3464;42.728;23.296;2023-04-15T06:12:23;13.13;;;5.80;;
6850;SDS011;3464;42.728;23.296;2023-04-15T06:14:50;25.07;;;6.30;;
6850;SDS011;3464;42.728;23.296;2023-04-15T06:17:17;18.23;;;7.13;;
6850;SDS011;3464;42.728;23.296;2023-04-15T06:19:45;15.93;;;6.30;;
6850;SDS011;3464;42.728;23.296;2023-04-15T06:22:12;14.90;;;6.60;;
6850;SDS011;3464;42.728;23.296;2023-04-15T06:24:39;18.07;;;7.20;;
6850;SDS011;3464;42.728;23.296;2023-04-15T06:27:06;16.00;;;6.33;;
6850;SDS011;3464;42.728;23.296;2023-04-15T06:29:42;19.77;;;6.40;;
6850;SDS011;3464;42.728;23.296;2023-04-15T06:32:10;15.17;;;6.23;;
6850;SDS011;3464;42.728;23.296;2023-04-15T06:34:36;15.03;;;5.83;;
6850;SDS011;3464;42.728;23.296;2023-04-15T06:37:03;18.20;;;6.53;;
6850;SDS011;3464;42.728;23.296;2023-04-15T06:39:30;16.70;;;6.60;;
6850;SDS011;3464;42.728;23.296;2023-04-15T06:41:56;23.17;;;6.30;;
6850;SDS011;3464;42.728;23.296;2023-04-15T06:44:23;16.90;;;6.03;;
6850;SDS011;3464;42.728;23.296;2023-04-15T06:46:49;17.37;;;6.63;;
6850;SDS011;3464;42.728;23.296;2023-04-15T06:49:16;17.60;;;6.50;;
6850;SDS011;3464;42.728;23.296;2023-04-15T06:51:42;15.33;;;5.97;;
6850;SDS011;3464;42.728;23.296;2023-04-15T06:54:09;15.00;;;5.90;;
6850;SDS011;3464;42.728;23.296;2023-04-15T06:56:36;16.43;;;6.33;;
6850;SDS011;3464;42.728;23.296;2023-04-15T06:59:02;16.27;;;5.43;;
6850;SDS011;3464;42.728;23.296;2023-04-15T07:01:29;14.67;;;5.80;;
6850;SDS011;3464;42.728;23.296;2023-04-15T07:03:55;18.07;;;6.03;;
6850;SDS011;3464;42.728;23.296;2023-04-15T07:06:22;14.90;;;5.50;;
6850;SDS011;3464;42.728;23.296;2023-04-15T07:08:49;16.73;;;5.50;;
6850;SDS011;3464;42.728;23.296;2023-04-15T07:11:16;15.10;;;5.30;;
6850;SDS011;3464;42.728;23.296;2023-04-15T07:13:44;14.70;;;5.50;;
6850;SDS011;3464;42.728;23.296;2023-04-15T07:16:11;16.83;;;5.23;;
6850;SDS011;3464;42.728;23.296;2023-04-15T07:18:37;14.73;;;6.00;;
6850;SDS011;3464;42.728;23.296;2023-04-15T07:21:04;18.60;;;5.73;;
6850;SDS011;3464;42.728;23.296;2023-04-15T07:23:31;22.33;;;5.40;;
6850;SDS011;3464;42.728;23.296;2023-04-15T07:25:58;17.93;;;5.10;;
6850;SDS011;3464;42.728;23.296;2023-04-15T07:28:24;15.60;;;4.37;;
6850;SDS011;3464;42.728;23.296;2023-04-15T07:30:52;14.13;;;5.07;;
6850;SDS011;3464;42.728;23.296;2023-04-15T07:33:20;17.73;;;5.43;;
6850;SDS011;3464;42.728;23.296;2023-04-15T07:35:49;17.83;;;5.47;;
6850;SDS011;3464;42.728;23.296;2023-04-15T07:38:18;15.77;;;4.70;;
6850;SDS011;3464;42.728;23.296;2023-04-15T07:40:46;13.67;;;4.40;;
6850;SDS011;3464;42.728;23.296;2023-04-15T07:43:13;11.10;;;3.70;;
6850;SDS011;3464;42.728;23.296;2023-04-15T07:45:44;21.07;;;4.27;;
6850;SDS011;3464;42.728;23.296;2023-04-15T08:33:19;10.10;;;1.50;;
6850;SDS011;3464;42.728;23.296;2023-04-15T08:35:52;12.80;;;1.60;;
6850;SDS011;3464;42.728;23.296;2023-04-15T08:38:27;12.30;;;2.00;;
6850;SDS011;3464;42.728;23.296;2023-04-15T08:41:12;9.73;;;2.03;;
6850;SDS011;3464;42.728;23.296;2023-04-15T08:58:40;8.83;;;1.50;;
6850;SDS011;3464;42.728;23.296;2023-04-15T09:04:09;10.30;;;1.60;;
6850;SDS011;3464;42.728;23.296;2023-04-15T09:06:45;11.37;;;1.87;;
6850;SDS011;3464;42.728;23.296;2023-04-15T09:09:24;10.00;;;1.77;;
6850;SDS011;3464;42.728;23.296;2023-04-15T09:12:05;10.43;;;1.87;;
6850;SDS011;3464;42.728;23.296;2023-04-15T09:14:45;9.90;;;1.70;;
6850;SDS011;3464;42.728;23.296;2023-04-15T09:17:17;10.47;;;1.93;;
6850;SDS011;3464;42.728;23.296;2023-04-15T09:19:54;10.27;;;2.10;;
6850;SDS011;3464;42.728;23.296;2023-04-15T09:22:32;11.37;;;2.50;;
6850;SDS011;3464;42.728;23.296;2023-04-15T09:25:04;9.30;;;1.50;;
6850;SDS011;3464;42.728;23.296;2023-04-15T09:28:03;9.87;;;1.47;;
6850;SDS011;3464;42.728;23.296;2023-04-15T09:30:34;12.73;;;2.20;;
6850;SDS011;3464;42.728;23.296;2023-04-15T09:33:07;10.93;;;1.83;;
6850;SDS011;3464;42.728;23.296;2023-04-15T09:35:35;10.03;;;2.17;;
6850;SDS011;3464;42.728;23.296;2023-04-15T09:38:05;11.30;;;2.30;;
6850;SDS011;3464;42.728;23.296;2023-04-15T09:40:35;12.00;;;2.50;;
6850;SDS011;3464;42.728;23.296;2023-04-15T09:43:03;12.13;;;2.00;;
6850;SDS011;3464;42.728;23.296;2023-04-15T09:45:32;9.70;;;1.70;;
6850;SDS011;3464;42.728;23.296;2023-04-15T09:50:49;9.60;;;1.80;;
6850;SDS011;3464;42.728;23.296;2023-04-15T09:53:16;10.77;;;2.57;;
6850;SDS011;3464;42.728;23.296;2023-04-15T09:55:52;9.87;;;1.70;;
6850;SDS011;3464;42.728;23.296;2023-04-15T09:58:20;9.67;;;1.57;;
6850;SDS011;3464;42.728;23.296;2023-04-15T10:03:56;9.17;;;1.53;;
6850;SDS011;3464;42.728;23.296;2023-04-15T10:06:23;9.70;;;1.37;;
6850;SDS011;3464;42.728;23.296;2023-04-15T10:08:51;11.10;;;1.63;;
6850;SDS011;3464;42.728;23.296;2023-04-15T10:11:19;9.90;;;1.70;;
6850;SDS011;3464;42.728;23.296;2023-04-15T10:23:15;10.23;;;1.80;;
6850;SDS011;3464;42.728;23.296;2023-04-15T10:25:43;8.30;;;1.50;;
6850;SDS011;3464;42.728;23.296;2023-04-15T10:28:13;9.80;;;1.57;;
6850;SDS011;3464;42.728;23.296;2023-04-15T10:30:43;9.67;;;2.13;;
6850;SDS011;3464;42.728;23.296;2023-04-15T10:33:12;11.97;;;1.53;;
6850;SDS011;3464;42.728;23.296;2023-04-15T10:44:51;10.87;;;1.73;;
6850;SDS011;3464;42.728;23.296;2023-04-15T10:50:22;10.60;;;1.80;;
6850;SDS011;3464;42.728;23.296;2023-04-15T10:52:49;9.30;;;1.67;;
6850;SDS011;3464;42.728;23.296;2023-04-15T10:55:19;12.43;;;1.60;;
6850;SDS011;3464;42.728;23.296;2023-04-15T10:57:44;11.20;;;1.67;;
6850;SDS011;3464;42.728;23.296;2023-04-15T11:00:14;11.60;;;1.90;;
6850;SDS011;3464;42.728;23.296;2023-04-15T11:02:42;9.87;;;1.60;;
6850;SDS011;3464;42.728;23.296;2023-04-15T11:05:14;10.00;;;1.50;;
6850;SDS011;3464;42.728;23.296;2023-04-15T11:07:45;9.60;;;1.80;;
6850;SDS011;3464;42.728;23.296;2023-04-15T11:10:49;14.20;;;1.80;;
6850;SDS011;3464;42.728;23.296;2023-04-15T11:13:14;9.37;;;1.70;;
6850;SDS011;3464;42.728;23.296;2023-04-15T11:15:40;9.00;;;1.60;;
6850;SDS011;3464;42.728;23.296;2023-04-15T11:20:51;11.30;;;1.87;;
6850;SDS011;3464;42.728;23.296;2023-04-15T11:23:19;9.40;;;1.87;;
6850;SDS011;3464;42.728;23.296;2023-04-15T11:25:48;11.07;;;1.93;;
6850;SDS011;3464;42.728;23.296;2023-04-15T11:28:16;8.40;;;1.63;;
6850;SDS011;3464;42.728;23.296;2023-04-15T11:30:45;9.90;;;1.90;;
6850;SDS011;3464;42.728;23.296;2023-04-15T11:33:13;9.20;;;1.80;;
6850;SDS011;3464;42.728;23.296;2023-04-15T11:35:41;11.63;;;2.00;;
6850;SDS011;3464;42.728;23.296;2023-04-15T11:38:11;10.50;;;1.57;;
6850;SDS011;3464;42.728;23.296;2023-04-15T11:40:38;13.57;;;2.00;;
6850;SDS011;3464;42.728;23.296;2023-04-15T11:43:07;9.10;;;1.83;;
6850;SDS011;3464;42.728;23.296;2023-04-15T11:45:46;9.20;;;1.60;;
6850;SDS011;3464;42.728;23.296;2023-04-15T11:48:05;9.20;;;1.70;;
6850;SDS011;3464;42.728;23.296;2023-04-15T11:50:31;11.43;;;1.80;;
6850;SDS011;3464;42.728;23.296;2023-04-15T11:53:08;9.63;;;1.70;;
6850;SDS011;3464;42.728;23.296;2023-04-15T11:55:45;9.90;;;1.70;;
6850;SDS011;3464;42.728;23.296;2023-04-15T11:58:15;8.93;;;1.70;;
6850;SDS011;3464;42.728;23.296;2023-04-15T12:00:45;9.10;;;1.50;;
6850;SDS011;3464;42.728;23.296;2023-04-15T12:03:21;8.23;;;1.40;;
6850;SDS011;3464;42.728;23.296;2023-04-15T12:08:25;9.37;;;1.87;;
6850;SDS011;3464;42.728;23.296;2023-04-15T12:10:57;9.80;;;1.70;;
6850;SDS011;3464;42.728;23.296;2023-04-15T12:13:18;9.03;;;1.53;;
6850;SDS011;3464;42.728;23.296;2023-04-15T12:15:45;11.80;;;1.73;;
6850;SDS011;3464;42.728;23.296;2023-04-15T12:18:16;10.23;;;1.47;;
6850;SDS011;3464;42.728;23.296;2023-04-15T12:20:43;10.13;;;1.53;;
6850;SDS011;3464;42.728;23.296;2023-04-15T12:23:09;13.50;;;1.80;;
6850;SDS011;3464;42.728;23.296;2023-04-15T12:25:36;9.77;;;1.70;;
6850;SDS011;3464;42.728;23.296;2023-04-15T12:28:09;9.30;;;1.70;;
6850;SDS011;3464;42.728;23.296;2023-04-15T12:30:29;10.73;;;1.50;;
6850;SDS011;3464;42.728;23.296;2023-04-15T12:32:57;9.33;;;1.50;;
6850;SDS011;3464;42.728;23.296;2023-04-15T12:35:24;9.87;;;1.90;;
6850;SDS011;3464;42.728;23.296;2023-04-15T12:37:51;9.73;;;1.40;;
6850;SDS011;3464;42.728;23.296;2023-04-15T12:40:18;9.40;;;1.60;;
6850;SDS011;3464;42.728;23.296;2023-04-15T12:42:44;10.97;;;1.90;;
6850;SDS011;3464;42.728;23.296;2023-04-15T12:45:11;11.33;;;1.60;;
6850;SDS011;3464;42.728;23.296;2023-04-15T12:47:37;9.10;;;1.40;;
6850;SDS011;3464;42.728;23.296;2023-04-15T12:50:05;9.07;;;1.53;;
6850;SDS011;3464;42.728;23.296;2023-04-15T12:52:32;10.03;;;1.67;;
6850;SDS011;3464;42.728;23.296;2023-04-15T12:54:58;8.50;;;1.50;;
6850;SDS011;3464;42.728;23.296;2023-04-15T12:57:26;11.80;;;1.77;;
6850;SDS011;3464;42.728;23.296;2023-04-15T12:59:53;10.43;;;1.47;;
6850;SDS011;3464;42.728;23.296;2023-04-15T13:02:20;11.33;;;1.73;;
6850;SDS011;3464;42.728;23.296;2023-04-15T13:04:54;9.67;;;1.50;;
6850;SDS011;3464;42.728;23.296;2023-04-15T13:07:23;8.70;;;1.30;;
6850;SDS011;3464;42.728;23.296;2023-04-15T13:09:49;8.83;;;1.40;;
6850;SDS011;3464;42.728;23.296;2023-04-15T13:12:16;10.90;;;1.60;;
6850;SDS011;3464;42.728;23.296;2023-04-15T13:14:43;10.30;;;1.40;;
6850;SDS011;3464;42.728;23.296;2023-04-15T13:17:09;9.53;;;1.50;;
6850;SDS011;3464;42.728;23.296;2023-04-15T13:19:37;10.83;;;1.40;;
6850;SDS011;3464;42.728;23.296;2023-04-15T13:22:03;13.00;;;1.53;;
6850;SDS011;3464;42.728;23.296;2023-04-15T13:24:30;9.20;;;1.33;;
6850;SDS011;3464;42.728;23.296;2023-04-15T13:26:57;9.43;;;1.20;;
6850;SDS011;3464;42.728;23.296;2023-04-15T13:29:24;9.20;;;1.50;;
6850;SDS011;3464;42.728;23.296;2023-04-15T13:31:51;8.30;;;1.30;;
6850;SDS011;3464;42.728;23.296;2023-04-15T13:34:17;8.50;;;1.30;;
6850;SDS011;3464;42.728;23.296;2023-04-15T13:36:44;10.43;;;1.67;;
6850;SDS011;3464;42.728;23.296;2023-04-15T13:39:10;8.80;;;1.40;;
6850;SDS011;3464;42.728;23.296;2023-04-15T13:41:39;11.93;;;2.87;;
6850;SDS011;3464;42.728;23.296;2023-04-15T13:44:06;8.47;;;1.50;;
6850;SDS011;3464;42.728;23.296;2023-04-15T13:46:33;9.37;;;1.33;;
6850;SDS011;3464;42.728;23.296;2023-04-15T13:49:00;9.43;;;1.50;;
6850;SDS011;3464;42.728;23.296;2023-04-15T13:51:27;8.83;;;1.50;;
6850;SDS011;3464;42.728;23.296;2023-04-15T13:53:54;9.60;;;1.40;;
6850;SDS011;3464;42.728;23.296;2023-04-15T13:56:20;8.83;;;1.43;;
6850;SDS011;3464;42.728;23.296;2023-04-15T13:58:47;9.70;;;1.50;;
6850;SDS011;3464;42.728;23.296;2023-04-15T14:01:14;8.53;;;1.30;;
6850;SDS011;3464;42.728;23.296;2023-04-15T14:03:41;9.23;;;1.30;;
6850;SDS011;3464;42.728;23.296;2023-04-15T14:06:07;8.67;;;1.47;;
6850;SDS011;3464;42.728;23.296;2023-04-15T14:08:34;8.47;;;1.20;;
6850;SDS011;3464;42.728;23.296;2023-04-15T14:11:01;9.00;;;1.50;;
6850;SDS011;3464;42.728;23.296;2023-04-15T14:13:28;9.37;;;1.67;;
6850;SDS011;3464;42.728;23.296;2023-04-15T14:15:55;9.00;;;1.40;;
6850;SDS011;3464;42.728;23.296;2023-04-15T14:18:23;9.10;;;1.73;;
6850;SDS011;3464;42.728;23.296;2023-04-15T14:20:49;9.37;;;1.70;;
6850;SDS011;3464;42.728;23.296;2023-04-15T14:23:16;7.93;;;1.20;;
6850;SDS011;3464;42.728;23.296;2023-04-15T14:25:44;10.33;;;1.50;;
6850;SDS011;3464;42.728;23.296;2023-04-15T14:28:12;9.27;;;1.50;;
6850;SDS011;3464;42.728;23.296;2023-04-15T14:30:39;9.67;;;1.70;;
6850;SDS011;3464;42.728;23.296;2023-04-15T14:33:05;8.80;;;1.40;;
6850;SDS011;3464;42.728;23.296;2023-04-15T14:35:32;8.23;;;1.50;;
6850;SDS011;3464;42.728;23.296;2023-04-15T14:37:59;8.40;;;1.33;;
6850;SDS011;3464;42.728;23.296;2023-04-15T14:40:25;8.80;;;1.43;;
6850;SDS011;3464;42.728;23.296;2023-04-15T14:42:53;8.90;;;1.60;;
6850;SDS011;3464;42.728;23.296;2023-04-15T14:45:20;11.03;;;2.03;;
6850;SDS011;3464;42.728;23.296;2023-04-15T14:47:47;9.57;;;1.73;;
6850;SDS011;3464;42.728;23.296;2023-04-15T14:50:13;8.57;;;1.57;;
6850;SDS011;3464;42.728;23.296;2023-04-15T14:52:40;8.40;;;1.30;;
6850;SDS011;3464;42.728;23.296;2023-04-15T14:55:07;8.10;;;1.27;;
6850;SDS011;3464;42.728;23.296;2023-04-15T14:57:35;11.63;;;1.70;;
6850;SDS011;3464;42.728;23.296;2023-04-15T15:00:02;14.30;;;3.30;;
6850;SDS011;3464;42.728;23.296;2023-04-15T15:02:28;13.50;;;3.67;;
6850;SDS011;3464;42.728;23.296;2023-04-15T15:04:54;12.37;;;2.57;;
6850;SDS011;3464;42.728;23.296;2023-04-15T15:07:21;18.40;;;4.03;;
6850;SDS011;3464;42.728;23.296;2023-04-15T15:09:47;13.50;;;3.20;;
6850;SDS011;3464;42.728;23.296;2023-04-15T15:12:14;21.00;;;3.83;;
6850;SDS011;3464;42.728;23.296;2023-04-15T15:14:40;10.40;;;1.50;;
6850;SDS011;3464;42.728;23.296;2023-04-15T15:17:08;13.37;;;3.47;;
6850;SDS011;3464;42.728;23.296;2023-04-15T15:19:34;10.10;;;2.00;;
6850;SDS011;3464;42.728;23.296;2023-04-15T15:22:02;8.30;;;1.40;;
6850;SDS011;3464;42.728;23.296;2023-04-15T15:24:28;11.57;;;1.53;;
6850;SDS011;3464;42.728;23.296;2023-04-15T15:26:54;9.60;;;1.50;;
6850;SDS011;3464;42.728;23.296;2023-04-15T15:29:21;9.80;;;1.63;;
6850;SDS011;3464;42.728;23.296;2023-04-15T15:31:48;10.13;;;1.70;;
6850;SDS011;3464;42.728;23.296;2023-04-15T15:34:14;9.30;;;1.50;;
6850;SDS011;3464;42.728;23.296;2023-04-15T15:36:41;13.40;;;1.87;;
6850;SDS011;3464;42.728;23.296;2023-04-15T15:39:07;9.77;;;1.50;;
6850;SDS011;3464;42.728;23.296;2023-04-15T15:41:34;10.60;;;1.40;;
6850;SDS011;3464;42.728;23.296;2023-04-15T15:44:03;8.70;;;1.50;;
6850;SDS011;3464;42.728;23.296;2023-04-15T15:46:30;9.37;;;1.60;;
6850;SDS011;3464;42.728;23.296;2023-04-15T15:48:57;9.50;;;1.60;;
6850;SDS011;3464;42.728;23.296;2023-04-15T15:51:24;8.93;;;1.53;;
6850;SDS011;3464;42.728;23.296;2023-04-15T15:53:51;10.93;;;1.40;;
6850;SDS011;3464;42.728;23.296;2023-04-15T15:56:18;13.47;;;1.80;;
6850;SDS011;3464;42.728;23.296;2023-04-15T15:58:44;10.60;;;1.80;;
6850;SDS011;3464;42.728;23.296;2023-04-15T16:01:11;8.53;;;1.60;;
6850;SDS011;3464;42.728;23.296;2023-04-15T16:03:37;8.93;;;1.50;;
6850;SDS011;3464;42.728;23.296;2023-04-15T16:06:04;9.63;;;1.60;;
6850;SDS011;3464;42.728;23.296;2023-04-15T16:08:31;8.50;;;1.63;;
6850;SDS011;3464;42.728;23.296;2023-04-15T16:10:57;8.43;;;1.37;;
6850;SDS011;3464;42.728;23.296;2023-04-15T16:13:24;9.60;;;1.57;;
6850;SDS011;3464;42.728;23.296;2023-04-15T16:15:51;9.90;;;1.50;;
6850;SDS011;3464;42.728;23.296;2023-04-15T16:18:18;12.60;;;1.53;;
6850;SDS011;3464;42.728;23.296;2023-04-15T16:20:45;8.87;;;1.70;;
6850;SDS011;3464;42.728;23.296;2023-04-15T16:23:12;9.27;;;1.80;;
6850;SDS011;3464;42.728;23.296;2023-04-15T16:25:38;8.93;;;1.60;;
6850;SDS011;3464;42.728;23.296;2023-04-15T16:28:08;12.17;;;2.27;;
6850;SDS011;3464;42.728;23.296;2023-04-15T16:30:35;10.37;;;1.87;;